Time;durP1;ratioP1;P1;durP2;ratioP2;P2;SDS_P1;SDS_P2;PMS_P1;PMS_P2;Temp;Humidity;BMP_temperature;BMP_pressure;BME280_temperature;BME280_humidity;BME280_pressure;Samples;Min_cycle;Max_cycle;Signal;HPM_P1;HPM_P2
2021/07/29 00:00:56;;;;;;;;;;;;;;;21.73;77.05;97930.70;1661057;84;24798;-85
2021/07/29 00:03:22;;;;;;;;;;;;;;;21.78;77.02;97931.46;1660144;84;22002;-85
2021/07/29 00:05:49;;;;;;;;;;;;;;;21.80;77.01;97930.27;1671854;84;21106;-85
2021/07/29 00:08:27;;;;;;;;;;;;;;;21.77;76.99;97935.96;1664725;84;24504;-84
2021/07/29 00:10:53;;;;;;;;;;;;;;;21.74;76.99;97939.02;1665598;84;20234;-85
2021/07/29 00:13:20;;;;;;;;;;;;;;;21.71;77.01;97939.41;1665882;83;20393;-85
2021/07/29 00:15:46;;;;;;;;;;;;;;;21.69;77.01;97950.25;1663687;85;22049;-85
2021/07/29 00:20:42;;;;;;;;;;;;;;;21.59;77.07;97954.23;1659805;84;24461;-85
2021/07/29 00:23:16;;;;;;;;;;;;;;;21.55;77.12;97951.09;1659677;84;20686;-85
2021/07/29 00:25:47;;;;;;;;;;;;;;;21.52;77.16;97955.98;1660422;85;24364;-85
2021/07/29 00:28:13;;;;;;;;;;;;;;;21.50;77.22;97954.00;1661238;84;22834;-85
2021/07/29 00:30:39;;;;;;;;;;;;;;;21.48;77.26;97956.05;1664677;84;26018;-85
2021/07/29 00:33:05;;;;;;;;;;;;;;;21.47;77.31;97950.40;1662975;85;20892;-85
2021/07/29 00:35:31;;;;;;;;;;;;;;;21.42;77.35;97947.47;1665721;85;20227;-85
2021/07/29 00:38:00;;;;;;;;;;;;;;;21.39;77.41;97947.83;1664037;84;24753;-86
2021/07/29 00:40:27;;;;;;;;;;;;;;;21.35;77.49;97950.05;1665804;84;22706;-85
2021/07/29 00:42:54;;;;;;;;;;;;;;;21.33;77.55;97948.08;1663132;84;26092;-85
2021/07/29 00:45:20;;;;;;;;;;;;;;;21.32;77.63;97944.29;1660161;85;25193;-85
2021/07/29 00:47:47;;;;;;;;;;;;;;;21.33;77.67;97947.28;1659343;85;20231;-85
2021/07/29 00:50:16;;;;;;;;;;;;;;;21.32;77.75;97946.95;1664580;84;25507;-84
2021/07/29 00:52:44;;;;;;;;;;;;;;;21.32;77.80;97950.44;1662436;84;21977;-84
2021/07/29 00:55:10;;;;;;;;;;;;;;;21.30;77.88;97944.47;1661500;84;26813;-85
2021/07/29 00:57:36;;;;;;;;;;;;;;;21.28;77.96;97947.30;1668245;84;24621;-85
2021/07/29 01:00:04;;;;;;;;;;;;;;;21.31;78.02;97950.62;1661072;85;20271;-84
2021/07/29 01:02:30;;;;;;;;;;;;;;;21.33;78.09;97958.72;1663022;84;24858;-85
2021/07/29 01:04:57;;;;;;;;;;;;;;;21.33;78.12;97954.73;1669070;84;21417;-85
2021/07/29 01:07:24;;;;;;;;;;;;;;;21.26;78.17;97955.17;1662069;83;26013;-85
2021/07/29 01:09:51;;;;;;;;;;;;;;;21.14;78.23;97949.50;1674121;84;24450;-86
2021/07/29 01:12:17;;;;;;;;;;;;;;;21.09;78.29;97943.05;1676414;83;20347;-85
2021/07/29 01:14:47;;;;;;;;;;;;;;;21.03;78.38;97943.78;1655092;84;24753;-85
2021/07/29 01:17:13;;;;;;;;;;;;;;;20.95;78.48;97938.05;1658977;84;22047;-86
2021/07/29 01:19:39;;;;;;;;;;;;;;;20.83;78.55;97919.09;1672805;84;21121;-85
2021/07/29 01:22:05;;;;;;;;;;;;;;;20.71;78.66;97917.89;1651193;85;24410;-85
2021/07/29 01:24:34;;;;;;;;;;;;;;;20.64;78.76;97921.45;1674749;83;20251;-87
2021/07/29 01:27:00;;;;;;;;;;;;;;;20.67;78.89;97923.77;1673652;84;24822;-86
2021/07/29 01:29:29;;;;;;;;;;;;;;;20.69;79.03;97921.23;1673905;85;20248;-86
2021/07/29 01:31:54;;;;;;;;;;;;;;;20.72;79.16;97931.52;1670522;84;26009;-86
2021/07/29 01:34:20;;;;;;;;;;;;;;;20.85;79.26;97937.00;1673074;84;20246;-86
2021/07/29 01:36:46;;;;;;;;;;;;;;;20.99;79.36;97939.35;1671646;85;20246;-86
2021/07/29 01:39:13;;;;;;;;;;;;;;;21.11;79.43;97931.73;1675162;84;24798;-86
2021/07/29 01:41:39;;;;;;;;;;;;;;;21.27;79.49;97938.20;1666562;84;21470;-86
2021/07/29 01:44:05;;;;;;;;;;;;;;;21.37;79.50;97932.58;1673076;84;21149;-86
2021/07/29 01:46:31;;;;;;;;;;;;;;;21.44;79.51;97937.48;1670069;85;20854;-86
2021/07/29 01:48:57;;;;;;;;;;;;;;;21.43;79.55;97933.16;1706238;83;20820;-86
2021/07/29 01:51:23;;;;;;;;;;;;;;;21.43;79.55;97931.83;1674836;85;24976;-85
2021/07/29 01:53:52;;;;;;;;;;;;;;;21.42;79.56;97938.16;1674832;84;20294;-85
2021/07/29 01:56:20;;;;;;;;;;;;;;;21.49;79.56;97936.41;1668472;83;26087;-85
2021/07/29 01:59:06;;;;;;;;;;;;;;;21.52;79.52;97932.02;1676501;84;24569;-86
2021/07/29 02:01:31;;;;;;;;;;;;;;;21.44;79.49;97931.61;1674429;84;20227;-86
2021/07/29 02:03:57;;;;;;;;;;;;;;;21.46;79.50;97931.44;1641606;86;24785;-86
2021/07/29 02:06:23;;;;;;;;;;;;;;;21.50;79.49;97933.53;1680852;84;21946;-86
2021/07/29 02:08:50;;;;;;;;;;;;;;;21.56;79.46;97935.45;1648836;85;21733;-86
2021/07/29 02:11:16;;;;;;;;;;;;;;;21.57;79.46;97930.95;1635373;85;24483;-85
2021/07/29 02:13:43;;;;;;;;;;;;;;;21.57;79.44;97931.77;1680401;84;20228;-85
2021/07/29 02:16:10;;;;;;;;;;;;;;;21.59;79.45;97936.92;1665650;85;24880;-86
2021/07/29 02:18:36;;;;;;;;;;;;;;;21.60;79.41;97941.23;1665894;85;22029;-86
2021/07/29 02:21:02;;;;;;;;;;;;;;;21.62;79.38;97944.52;1668240;84;21486;-85
2021/07/29 02:23:28;;;;;;;;;;;;;;;21.63;79.35;97945.67;1665993;85;20280;-85
2021/07/29 02:25:53;;;;;;;;;;;;;;;21.68;79.32;97944.59;1662423;85;20296;-86
2021/07/29 02:28:19;;;;;;;;;;;;;;;21.70;79.29;97940.42;1664072;85;20255;-85
2021/07/29 02:30:45;;;;;;;;;;;;;;;21.69;79.27;97945.42;1662965;85;20380;-86
2021/07/29 02:33:11;;;;;;;;;;;;;;;21.68;79.26;97947.26;1666395;85;21001;-85
2021/07/29 02:35:37;;;;;;;;;;;;;;;21.67;79.25;97939.45;1662093;85;20248;-85
2021/07/29 02:38:03;;;;;;;;;;;;;;;21.63;79.25;97946.17;1666514;85;20253;-87
2021/07/29 02:40:32;;;;;;;;;;;;;;;21.50;79.26;97948.68;1663998;85;24893;-86
2021/07/29 02:42:58;;;;;;;;;;;;;;;21.49;79.26;97951.84;1664246;85;21935;-86
2021/07/29 02:45:24;;;;;;;;;;;;;;;21.52;79.24;97958.64;1669153;84;26028;-86
2021/07/29 02:47:51;;;;;;;;;;;;;;;21.50;79.21;97950.02;1662939;84;20874;-87
2021/07/29 02:50:17;;;;;;;;;;;;;;;21.53;79.18;97955.80;1662814;84;20479;-87
2021/07/29 02:52:43;;;;;;;;;;;;;;;21.54;79.16;97957.97;1664234;85;24824;-86
2021/07/29 02:55:09;;;;;;;;;;;;;;;21.56;79.16;97962.58;1662968;85;22147;-86
2021/07/29 02:57:36;;;;;;;;;;;;;;;21.57;79.12;97966.39;1669003;85;26027;-85
2021/07/29 03:00:03;;;;;;;;;;;;;;;21.57;79.11;97968.23;1671463;84;24526;-85
2021/07/29 03:02:29;;;;;;;;;;;;;;;21.48;79.11;97962.20;1646153;85;20256;-86
2021/07/29 03:04:55;;;;;;;;;;;;;;;21.38;79.14;97961.68;1679389;84;24824;-85
2021/07/29 03:07:21;;;;;;;;;;;;;;;21.25;79.18;97962.84;1679930;85;21391;-86
2021/07/29 03:09:50;;;;;;;;;;;;;;;21.10;79.21;97960.17;1678572;85;26084;-86
2021/07/29 03:12:16;;;;;;;;;;;;;;;21.00;79.24;97959.59;1678572;84;20270;-85
2021/07/29 03:14:44;;;;;;;;;;;;;;;20.94;79.28;97962.20;1678057;85;20330;-85
2021/07/29 03:17:10;;;;;;;;;;;;;;;20.87;79.33;97962.09;1678967;84;24829;-85
2021/07/29 03:19:37;;;;;;;;;;;;;;;20.81;79.41;97956.17;1675610;85;22070;-85
2021/07/29 03:22:03;;;;;;;;;;;;;;;20.80;79.50;97959.34;1680065;84;21035;-85
2021/07/29 03:24:33;;;;;;;;;;;;;;;20.80;79.61;97959.84;1679740;84;24437;-85
2021/07/29 03:26:56;;;;;;;;;;;;;;;20.78;79.71;97962.67;1680057;84;20459;-85
2021/07/29 03:29:27;;;;;;;;;;;;;;;20.93;79.78;97964.03;1652498;85;20294;-85
2021/07/29 03:31:52;;;;;;;;;;;;;;;21.12;79.87;97962.62;1683701;83;21452;-85
2021/07/29 03:34:18;;;;;;;;;;;;;;;21.29;79.91;97965.44;1680127;85;26046;-86
2021/07/29 03:36:44;;;;;;;;;;;;;;;21.37;79.94;97965.85;1659342;85;24648;-85
2021/07/29 03:39:11;;;;;;;;;;;;;;;21.46;79.95;97966.87;1684572;84;20805;-85
2021/07/29 03:41:37;;;;;;;;;;;;;;;21.52;79.94;97960.81;1638953;85;24724;-85
2021/07/29 03:44:03;;;;;;;;;;;;;;;21.59;79.89;97968.88;1684947;83;20263;-85
2021/07/29 03:46:29;;;;;;;;;;;;;;;21.62;79.88;97966.66;1642122;85;26034;-86
2021/07/29 03:48:56;;;;;;;;;;;;;;;21.54;79.86;97971.28;1679447;85;20274;-86
2021/07/29 03:51:23;;;;;;;;;;;;;;;21.35;79.87;97974.52;1660026;84;20293;-86
2021/07/29 03:53:49;;;;;;;;;;;;;;;21.21;79.89;97973.55;1680016;85;24776;-85
2021/07/29 03:56:15;;;;;;;;;;;;;;;21.10;79.95;97978.80;1652593;84;22203;-85
2021/07/29 03:58:41;;;;;;;;;;;;;;;21.04;79.98;97980.03;1679705;83;26039;-85
2021/07/29 04:01:09;;;;;;;;;;;;;;;20.98;80.04;97977.60;1649268;85;24470;-85
2021/07/29 04:03:35;;;;;;;;;;;;;;;20.95;80.12;97969.97;1628091;87;21021;-85
2021/07/29 04:06:03;;;;;;;;;;;;;;;20.95;80.20;97970.50;1628503;87;38770;-86
2021/07/29 04:08:32;;;;;;;;;;;;;;;20.97;80.28;97975.95;1678808;84;22056;-86
2021/07/29 04:11:01;;;;;;;;;;;;;;;21.03;80.36;97972.55;1643528;85;26001;-86
2021/07/29 04:13:27;;;;;;;;;;;;;;;21.08;80.44;97965.34;1678784;85;24518;-85
2021/07/29 04:16:00;;;;;;;;;;;;;;;21.07;80.48;97963.69;1635975;85;20955;-85
2021/07/29 04:18:26;;;;;;;;;;;;;;;21.07;80.54;97971.67;1664872;85;25066;-86
2021/07/29 04:20:55;;;;;;;;;;;;;;;21.19;80.59;97971.05;1663956;85;22809;-85
2021/07/29 04:23:21;;;;;;;;;;;;;;;21.25;80.64;97970.31;1667661;85;26079;-85
2021/07/29 04:25:47;;;;;;;;;;;;;;;21.22;80.71;97971.20;1664807;84;25324;-85
2021/07/29 04:28:13;;;;;;;;;;;;;;;21.21;80.75;97970.88;1656433;85;20208;-85
2021/07/29 04:30:39;;;;;;;;;;;;;;;21.31;80.79;97970.08;1662319;85;20223;-85
2021/07/29 04:33:10;;;;;;;;;;;;;;;21.48;80.80;97977.34;1668457;85;20913;-85
2021/07/29 04:35:39;;;;;;;;;;;;;;;21.61;80.78;97970.83;1665697;85;26151;-85
2021/07/29 04:38:08;;;;;;;;;;;;;;;21.71;80.77;97976.70;1665411;85;24459;-86
2021/07/29 04:40:34;;;;;;;;;;;;;;;21.74;80.72;97978.97;1664120;85;20231;-85
2021/07/29 04:43:03;;;;;;;;;;;;;;;21.78;80.67;97972.25;1667179;85;25840;-85
2021/07/29 04:45:30;;;;;;;;;;;;;;;21.79;80.59;97977.07;1667667;85;22068;-85
2021/07/29 04:47:56;;;;;;;;;;;;;;;21.77;80.55;97971.92;1664875;85;26031;-85
2021/07/29 04:50:22;;;;;;;;;;;;;;;21.77;80.53;97976.42;1665328;85;24153;-85
2021/07/29 04:52:52;;;;;;;;;;;;;;;21.77;80.50;97975.09;1669528;85;20243;-85
2021/07/29 04:55:19;;;;;;;;;;;;;;;21.79;80.46;97976.56;1665932;85;25680;-85
2021/07/29 04:57:45;;;;;;;;;;;;;;;21.80;80.41;97974.23;1649972;86;22025;-85
2021/07/29 05:00:13;;;;;;;;;;;;;;;21.78;80.36;97980.23;1681512;84;21059;-85
2021/07/29 05:02:39;;;;;;;;;;;;;;;21.76;80.34;97982.28;1685039;85;25415;-85
2021/07/29 05:05:05;;;;;;;;;;;;;;;21.75;80.29;97989.13;1653723;85;20462;-85
2021/07/29 05:07:31;;;;;;;;;;;;;;;21.74;80.23;97985.63;1630526;87;24773;-85
2021/07/29 05:10:03;;;;;;;;;;;;;;;21.70;80.21;97991.86;1630328;87;22615;-85
2021/07/29 05:12:29;;;;;;;;;;;;;;;21.65;80.23;97993.43;1684410;83;26038;-85
2021/07/29 05:14:57;;;;;;;;;;;;;;;21.60;80.20;97996.63;1652271;84;24674;-84
2021/07/29 05:17:23;;;;;;;;;;;;;;;21.58;80.19;97999.17;1682504;83;20232;-85
2021/07/29 05:19:49;;;;;;;;;;;;;;;21.51;80.19;98004.92;1694437;83;24752;-85
2021/07/29 05:22:15;;;;;;;;;;;;;;;21.43;80.18;98005.88;1693422;83;22325;-85
2021/07/29 05:24:41;;;;;;;;;;;;;;;21.34;80.13;98009.63;1692923;83;26286;-85
2021/07/29 05:27:07;;;;;;;;;;;;;;;21.24;80.05;98014.41;1648877;84;24425;-85
2021/07/29 05:29:33;;;;;;;;;;;;;;;21.13;79.96;98011.68;1681760;85;20172;-85
2021/07/29 05:31:59;;;;;;;;;;;;;;;21.07;79.83;98012.41;1652592;84;20837;-85
2021/07/29 05:34:28;;;;;;;;;;;;;;;21.01;79.72;98013.64;1679779;85;21975;-85
2021/07/29 05:36:55;;;;;;;;;;;;;;;20.95;79.65;98011.20;1690195;83;26822;-85
2021/07/29 05:39:21;;;;;;;;;;;;;;;20.92;79.56;98011.59;1657941;86;24471;-85
2021/07/29 05:41:47;;;;;;;;;;;;;;;20.83;79.50;98010.86;1658467;85;20451;-85
2021/07/29 05:44:13;;;;;;;;;;;;;;;20.80;79.45;98011.20;1685879;84;20700;-85
2021/07/29 05:46:41;;;;;;;;;;;;;;;20.81;79.44;98011.53;1641742;85;21953;-85
2021/07/29 05:49:07;;;;;;;;;;;;;;;20.81;79.42;98015.52;1681955;85;26147;-85
2021/07/29 05:51:33;;;;;;;;;;;;;;;20.83;79.39;98012.69;1630633;86;20324;-85
2021/07/29 05:53:59;;;;;;;;;;;;;;;20.82;79.40;98012.36;1629529;87;20259;-85
2021/07/29 05:56:31;;;;;;;;;;;;;;;20.79;79.35;98008.22;1685482;85;20468;-84
2021/07/29 05:58:58;;;;;;;;;;;;;;;20.78;79.32;98012.41;1629897;86;21907;-85
2021/07/29 06:01:25;;;;;;;;;;;;;;;20.77;79.28;98009.42;1707916;83;26680;-84
2021/07/29 06:04:01;;;;;;;;;;;;;;;20.75;79.25;98011.42;1629598;87;23993;-85
2021/07/29 06:06:27;;;;;;;;;;;;;;;20.76;79.21;98019.73;1685830;84;20232;-84
2021/07/29 06:08:57;;;;;;;;;;;;;;;20.82;79.23;98013.69;1629401;87;20262;-84
2021/07/29 06:11:23;;;;;;;;;;;;;;;20.90;79.29;98016.25;1682997;83;21268;-85
2021/07/29 06:13:49;;;;;;;;;;;;;;;21.00;79.31;98020.80;1681588;85;26068;-84
2021/07/29 06:16:17;;;;;;;;;;;;;;;21.06;79.33;98020.06;1630055;87;20815;-85
2021/07/29 06:19:28;;;;;;;;;;;;;;;21.10;79.35;98029.86;1685731;84;20579;-85
2021/07/29 06:21:15;;;;;;;;;;;;;;;21.08;79.31;98027.37;1666867;85;24630;-84
2021/07/29 06:23:41;;;;;;;;;;;;;;;21.04;79.21;98025.27;1645192;85;22063;-84
2021/07/29 06:26:09;;;;;;;;;;;;;;;21.00;79.11;98026.65;1665633;85;21094;-84
2021/07/29 06:28:35;;;;;;;;;;;;;;;20.95;78.96;98028.50;1679574;84;24457;-85
2021/07/29 06:31:02;;;;;;;;;;;;;;;20.95;78.87;98029.03;1630798;85;20269;-85
2021/07/29 06:33:29;;;;;;;;;;;;;;;20.95;78.79;98029.03;1632279;86;24749;-84
2021/07/29 06:35:55;;;;;;;;;;;;;;;20.94;78.68;98031.36;1630316;87;22109;-85
2021/07/29 06:38:21;;;;;;;;;;;;;;;20.95;78.60;98029.03;1685774;83;26044;-84
2021/07/29 06:40:47;;;;;;;;;;;;;;;20.96;78.56;98035.98;1630081;87;20897;-85
2021/07/29 06:43:13;;;;;;;;;;;;;;;20.94;78.46;98032.70;1684180;83;20377;-85
2021/07/29 06:45:39;;;;;;;;;;;;;;;20.90;78.36;98033.55;1651346;84;20348;-85
2021/07/29 06:48:07;;;;;;;;;;;;;;;20.82;78.27;98023.83;1658360;85;20830;-85
2021/07/29 06:50:33;;;;;;;;;;;;;;;20.91;78.25;98042.35;1630954;85;25978;-84
2021/07/29 06:52:59;;;;;;;;;;;;;;;20.91;78.24;98033.87;1630745;86;24227;-84
2021/07/29 06:55:26;;;;;;;;;;;;;;;20.97;78.22;98034.48;1682928;84;20233;-84
2021/07/29 06:57:52;;;;;;;;;;;;;;;21.02;78.23;98038.74;1630704;87;24736;-84
2021/07/29 07:00:20;;;;;;;;;;;;;;;21.07;78.22;98040.35;1682875;84;21941;-85
2021/07/29 07:02:46;;;;;;;;;;;;;;;21.09;78.16;98038.84;1636821;85;26251;-85
2021/07/29 07:05:15;;;;;;;;;;;;;;;21.12;78.14;98037.13;1682592;85;24449;-84
2021/07/29 07:07:41;;;;;;;;;;;;;;;21.25;78.13;98038.19;1627906;87;20370;-84
2021/07/29 07:10:07;;;;;;;;;;;;;;;21.32;78.17;98042.78;1630531;86;24815;-85
2021/07/29 07:12:35;;;;;;;;;;;;;;;21.38;78.14;98040.72;1683583;83;22040;-85
2021/07/29 07:15:01;;;;;;;;;;;;;;;21.49;78.13;98037.05;1664647;84;25959;-84
2021/07/29 07:17:27;;;;;;;;;;;;;;;21.62;78.13;98037.73;1681569;84;20250;-84
2021/07/29 07:19:59;;;;;;;;;;;;;;;21.73;78.06;98036.42;1655322;85;20235;-84
2021/07/29 07:22:23;;;;;;;;;;;;;;;21.81;77.93;98039.82;1653560;85;24970;-85
2021/07/29 07:24:49;;;;;;;;;;;;;;;21.88;77.74;98039.37;1678847;83;22048;-85
2021/07/29 07:27:15;;;;;;;;;;;;;;;21.95;77.66;98041.64;1678589;84;21674;-85
2021/07/29 07:29:41;;;;;;;;;;;;;;;21.98;77.55;98042.58;1679045;85;24497;-85
2021/07/29 07:32:07;;;;;;;;;;;;;;;22.06;77.47;98038.98;1678830;85;20255;-85
2021/07/29 07:34:33;;;;;;;;;;;;;;;22.10;77.33;98034.92;1678350;83;20223;-85
2021/07/29 07:36:59;;;;;;;;;;;;;;;22.14;77.19;98030.88;1679100;85;20770;-84
2021/07/29 07:39:25;;;;;;;;;;;;;;;22.20;77.07;98029.30;1678052;85;20936;-85
2021/07/29 07:41:51;;;;;;;;;;;;;;;22.24;76.92;98035.89;1678539;85;20298;-85
2021/07/29 07:44:17;;;;;;;;;;;;;;;22.25;76.69;98028.21;1678455;83;20491;-85
2021/07/29 07:46:44;;;;;;;;;;;;;;;22.31;76.48;98018.92;1680098;83;24872;-85
2021/07/29 07:49:12;;;;;;;;;;;;;;;22.38;76.24;98025.66;1678049;83;22445;-84
2021/07/29 07:51:38;;;;;;;;;;;;;;;22.40;76.07;98016.97;1690529;83;26058;-84
2021/07/29 07:54:07;;;;;;;;;;;;;;;22.45;75.95;98022.55;1677869;83;23700;-84
2021/07/29 07:56:33;;;;;;;;;;;;;;;22.50;75.83;98021.45;1630153;85;20490;-84
2021/07/29 07:58:59;;;;;;;;;;;;;;;22.52;75.61;98023.44;1685755;83;20258;-84
2021/07/29 08:01:26;;;;;;;;;;;;;;;22.51;75.33;98023.11;1652078;84;21993;-84
2021/07/29 08:03:52;;;;;;;;;;;;;;;22.57;75.12;98014.84;1686365;84;26184;-84
2021/07/29 08:06:18;;;;;;;;;;;;;;;22.62;74.93;98017.76;1701310;83;24380;-84
2021/07/29 08:08:49;;;;;;;;;;;;;;;22.73;74.76;98011.92;1688879;84;20200;-84
2021/07/29 08:11:17;;;;;;;;;;;;;;;22.74;74.53;98005.07;1674796;83;20279;-84
2021/07/29 08:13:43;;;;;;;;;;;;;;;22.79;74.31;98000.48;1694529;83;21930;-84
2021/07/29 08:16:09;;;;;;;;;;;;;;;22.94;74.28;98004.69;1666020;83;26752;-84
2021/07/29 08:18:35;;;;;;;;;;;;;;;23.03;74.19;98005.34;1664632;85;24402;-84
2021/07/29 08:21:04;;;;;;;;;;;;;;;23.15;74.12;98005.11;1664065;85;20246;-84
2021/07/29 08:23:30;;;;;;;;;;;;;;;23.24;74.01;97997.24;1667575;85;24878;-84
2021/07/29 08:25:56;;;;;;;;;;;;;;;23.32;73.81;97996.27;1666962;84;22841;-84
2021/07/29 08:28:22;;;;;;;;;;;;;;;23.44;73.51;97992.52;1690989;83;20974;-84
2021/07/29 08:30:48;;;;;;;;;;;;;;;23.50;73.31;97989.91;1672852;84;24379;-84
2021/07/29 08:33:14;;;;;;;;;;;;;;;23.55;73.15;97987.47;1685790;83;20244;-84
2021/07/29 08:35:40;;;;;;;;;;;;;;;23.61;72.97;97987.17;1686627;83;24816;-84
2021/07/29 08:38:06;;;;;;;;;;;;;;;23.69;72.75;97988.31;1687093;83;22023;-84
2021/07/29 08:40:33;;;;;;;;;;;;;;;23.80;72.45;97979.72;1650941;84;26015;-84
2021/07/29 08:42:59;;;;;;;;;;;;;;;23.89;72.22;97983.05;1685304;83;25364;-84
2021/07/29 08:45:27;;;;;;;;;;;;;;;23.94;71.95;97984.59;1685924;84;20809;-84
2021/07/29 08:47:55;;;;;;;;;;;;;;;24.00;71.62;97983.79;1688623;83;24835;-84
2021/07/29 08:50:22;;;;;;;;;;;;;;;24.03;71.35;97984.70;1687295;83;22601;-84
2021/07/29 08:52:50;;;;;;;;;;;;;;;24.10;71.15;97991.72;1688729;83;26887;-84
2021/07/29 08:55:17;;;;;;;;;;;;;;;24.12;70.89;97991.49;1687494;83;24446;-84
2021/07/29 08:57:44;;;;;;;;;;;;;;;24.18;70.56;97989.37;1688264;83;20502;-84
2021/07/29 09:00:12;;;;;;;;;;;;;;;24.25;70.28;97998.75;1682374;84;24927;-84
2021/07/29 09:02:38;;;;;;;;;;;;;;;24.23;69.87;98000.28;1679765;85;22100;-84
2021/07/29 09:05:06;;;;;;;;;;;;;;;24.20;69.47;98001.22;1652026;85;25961;-84
2021/07/29 09:07:35;;;;;;;;;;;;;;;24.19;69.17;97997.72;1681303;83;24615;-84
2021/07/29 09:10:04;;;;;;;;;;;;;;;24.22;68.88;97995.16;1677643;83;20307;-84
2021/07/29 09:12:30;;;;;;;;;;;;;;;24.28;68.67;98001.83;1681582;84;24740;-84
2021/07/29 09:14:58;;;;;;;;;;;;;;;24.34;68.41;98001.02;1629511;85;22011;-84
2021/07/29 09:17:24;;;;;;;;;;;;;;;24.40;68.22;97993.51;1678644;84;26045;-84
2021/07/29 09:19:53;;;;;;;;;;;;;;;24.47;68.00;97991.67;1678183;85;24411;-84
2021/07/29 09:22:20;;;;;;;;;;;;;;;24.59;67.91;97998.05;1677745;85;20152;-85
2021/07/29 09:25:05;;;;;;;;;;;;;;;24.69;67.77;97998.14;1673514;84;24746;-84
2021/07/29 09:27:39;;;;;;;;;;;;;;;24.71;67.54;97998.22;1676445;84;22111;-84
2021/07/29 09:30:16;;;;;;;;;;;;;;;24.77;67.24;98003.27;1679017;84;25953;-85
2021/07/29 09:33:05;;;;;;;;;;;;;;;24.83;67.00;97998.42;1676972;83;24600;-84
2021/07/29 09:35:36;;;;;;;;;;;;;;;24.88;66.75;97994.13;1678120;84;20212;-84
2021/07/29 09:38:03;;;;;;;;;;;;;;;24.91;66.39;97991.05;1680049;84;26494;-84
2021/07/29 09:40:49;;;;;;;;;;;;;;;24.94;66.03;97990.61;1680022;84;22822;-84
2021/07/29 09:43:17;;;;;;;;;;;;;;;24.98;65.78;97997.19;1676886;84;26215;-84
2021/07/29 09:45:44;;;;;;;;;;;;;;;25.05;65.49;98006.55;1677216;83;24437;-83
2021/07/29 09:48:10;;;;;;;;;;;;;;;25.11;65.20;97999.53;1677740;85;20244;-84
2021/07/29 09:50:37;;;;;;;;;;;;;;;25.15;64.83;97997.56;1678277;85;24731;-84
2021/07/29 09:53:04;;;;;;;;;;;;;;;25.20;64.57;97999.64;1677515;85;21953;-84
2021/07/29 09:55:31;;;;;;;;;;;;;;;25.25;64.39;97995.80;1679964;83;25826;-84
2021/07/29 09:57:58;;;;;;;;;;;;;;;25.34;64.28;97995.36;1677437;85;24325;-84
2021/07/29 10:00:24;;;;;;;;;;;;;;;25.40;64.02;97986.98;1683010;83;20225;-84
2021/07/29 10:02:52;;;;;;;;;;;;;;;25.45;63.77;97985.83;1685329;84;24987;-85
2021/07/29 10:05:20;;;;;;;;;;;;;;;25.50;63.50;97989.21;1686569;83;22084;-84
2021/07/29 10:07:48;;;;;;;;;;;;;;;25.55;63.22;97986.71;1685011;83;26211;-85
2021/07/29 10:10:20;;;;;;;;;;;;;;;25.59;63.00;97985.27;1684743;84;24632;-85
2021/07/29 10:12:48;;;;;;;;;;;;;;;25.63;62.75;97983.84;1687063;83;20437;-85
2021/07/29 10:15:33;;;;;;;;;;;;;;;25.65;62.46;97977.20;1684268;83;25545;-85
2021/07/29 10:18:02;;;;;;;;;;;;;;;25.69;62.29;97976.28;1686282;84;22090;-85
2021/07/29 10:20:30;;;;;;;;;;;;;;;25.71;62.02;97972.33;1685945;83;25985;-85
2021/07/29 10:23:16;;;;;;;;;;;;;;;25.78;61.81;97969.11;1683429;84;25172;-86
2021/07/29 10:25:57;;;;;;;;;;;;;;;25.84;61.69;97975.47;1687298;83;20375;-85
2021/07/29 10:28:25;;;;;;;;;;;;;;;25.90;61.58;97971.93;1685062;84;24759;-85
2021/07/29 10:30:58;;;;;;;;;;;;;;;25.96;61.36;97971.59;1685997;84;21958;-85
2021/07/29 10:33:25;;;;;;;;;;;;;;;26.00;61.20;97969.59;1685240;84;26040;-85
2021/07/29 10:35:51;;;;;;;;;;;;;;;26.07;61.03;97976.27;1689158;83;24388;-85
2021/07/29 10:38:35;;;;;;;;;;;;;;;26.13;60.90;97970.03;1684206;83;20267;-85
2021/07/29 10:41:05;;;;;;;;;;;;;;;26.15;60.65;97962.57;1685615;84;24769;-84
2021/07/29 10:43:31;;;;;;;;;;;;;;;26.18;60.39;97956.23;1686062;84;22096;-85
2021/07/29 10:45:58;;;;;;;;;;;;;;;26.20;60.24;97954.17;1685398;84;26662;-84
2021/07/29 10:48:44;;;;;;;;;;;;;;;26.26;60.12;97950.34;1686203;84;24431;-84
2021/07/29 10:51:11;;;;;;;;;;;;;;;26.29;59.87;97954.78;1685694;84;20259;-84
2021/07/29 10:53:39;;;;;;;;;;;;;;;26.33;59.66;97952.47;1685340;84;24762;-84
2021/07/29 10:56:07;;;;;;;;;;;;;;;26.36;59.50;97942.63;1685330;83;22703;-84
2021/07/29 10:58:41;;;;;;;;;;;;;;;26.41;59.36;97947.63;1686000;84;25945;-84
2021/07/29 11:01:09;;;;;;;;;;;;;;;26.51;59.42;97945.27;1678107;83;25284;-84
2021/07/29 11:03:35;;;;;;;;;;;;;;;26.60;59.33;97940.45;1677440;84;20268;-84
2021/07/29 11:06:10;;;;;;;;;;;;;;;26.64;59.17;97939.79;1678765;84;24662;-84
2021/07/29 11:08:38;;;;;;;;;;;;;;;26.67;58.86;97938.54;1678050;84;21602;-84
2021/07/29 11:11:04;;;;;;;;;;;;;;;26.75;58.63;97946.29;1676943;85;26939;-84
2021/07/29 11:13:31;;;;;;;;;;;;;;;26.79;58.38;97938.60;1654406;85;24862;-84
2021/07/29 11:15:59;;;;;;;;;;;;;;;26.81;58.19;97940.55;1676387;84;20471;-84
2021/07/29 11:18:25;;;;;;;;;;;;;;;26.84;57.95;97935.55;1677280;85;25584;-84
2021/07/29 11:20:51;;;;;;;;;;;;;;;26.88;57.88;97932.77;1677085;83;22154;-84
2021/07/29 11:23:32;;;;;;;;;;;;;;;26.90;57.58;97937.90;1677145;85;25973;-84
2021/07/29 11:26:04;;;;;;;;;;;;;;;26.91;57.29;97937.69;1678934;83;24430;-84
2021/07/29 11:28:27;;;;;;;;;;;;;;;26.90;56.89;97934.70;1676874;84;20212;-84
2021/07/29 11:30:54;;;;;;;;;;;;;;;26.86;56.38;97941.53;1677282;85;25305;-84
2021/07/29 11:33:21;;;;;;;;;;;;;;;26.89;56.12;97938.97;1677581;84;22753;-84
2021/07/29 11:35:52;;;;;;;;;;;;;;;26.91;55.74;97944.40;1677296;85;26788;-84
2021/07/29 11:38:19;;;;;;;;;;;;;;;26.95;55.57;97936.19;1676397;84;25457;-85
2021/07/29 11:40:45;;;;;;;;;;;;;;;27.04;55.51;97931.36;1677515;84;20518;-84
2021/07/29 11:43:27;;;;;;;;;;;;;;;27.06;55.30;97930.59;1677828;85;24755;-85
2021/07/29 11:45:55;;;;;;;;;;;;;;;27.10;55.11;97921.06;1676149;84;21967;-85
2021/07/29 11:48:27;;;;;;;;;;;;;;;27.12;54.67;97922.98;1677786;84;26569;-85
2021/07/29 11:50:53;;;;;;;;;;;;;;;27.10;54.35;97925.09;1677024;85;24514;-85
2021/07/29 11:53:19;;;;;;;;;;;;;;;27.10;54.13;97918.38;1677231;84;20182;-84
2021/07/29 11:55:52;;;;;;;;;;;;;;;27.14;53.91;97924.93;1676526;84;20302;-85
2021/07/29 11:58:18;;;;;;;;;;;;;;;27.17;53.71;97924.47;1679356;84;21969;-85
2021/07/29 12:00:48;;;;;;;;;;;;;;;27.25;53.63;97922.01;1680899;84;21181;-85
2021/07/29 12:03:27;;;;;;;;;;;;;;;27.33;53.56;97922.51;1682986;85;24529;-85
2021/07/29 12:05:56;;;;;;;;;;;;;;;27.42;53.47;97924.38;1681162;85;20510;-84
2021/07/29 12:08:23;;;;;;;;;;;;;;;27.49;53.26;97925.91;1685053;83;24990;-84
2021/07/29 12:10:50;;;;;;;;;;;;;;;27.56;53.23;97916.45;1683187;85;22087;-84
2021/07/29 12:13:18;;;;;;;;;;;;;;;27.59;52.99;97909.30;1683957;85;26202;-85
2021/07/29 12:15:45;;;;;;;;;;;;;;;27.68;52.92;97920.02;1684092;83;24438;-84
2021/07/29 12:18:15;;;;;;;;;;;;;;;27.69;52.83;97912.25;1683446;83;20297;-85
2021/07/29 12:20:44;;;;;;;;;;;;;;;27.71;52.64;97920.89;1681720;83;24864;-84
2021/07/29 12:23:14;;;;;;;;;;;;;;;27.72;52.48;97910.44;1683681;83;22061;-85
2021/07/29 12:25:40;;;;;;;;;;;;;;;27.69;52.11;97914.94;1682253;85;25947;-84
2021/07/29 12:28:06;;;;;;;;;;;;;;;27.69;51.96;97909.56;1682996;84;24384;-84
2021/07/29 12:30:38;;;;;;;;;;;;;;;27.71;51.85;97906.65;1683287;85;20231;-84
2021/07/29 12:33:05;;;;;;;;;;;;;;;27.74;51.59;97900.80;1683124;83;24809;-84
2021/07/29 12:35:31;;;;;;;;;;;;;;;27.78;51.49;97902.80;1685568;83;22054;-84
2021/07/29 12:37:59;;;;;;;;;;;;;;;27.84;51.41;97897.84;1683768;83;21031;-84
2021/07/29 12:40:27;;;;;;;;;;;;;;;27.86;51.18;97897.10;1683874;83;24420;-84
2021/07/29 12:42:53;;;;;;;;;;;;;;;27.88;50.91;97896.33;1682961;85;20236;-85
2021/07/29 12:45:19;;;;;;;;;;;;;;;27.90;50.66;97894.77;1684092;84;24921;-84
2021/07/29 12:48:04;;;;;;;;;;;;;;;27.91;50.48;97891.55;1686846;83;22084;-85
2021/07/29 12:50:37;;;;;;;;;;;;;;;27.95;50.46;97884.65;1680108;83;26074;-84
2021/07/29 12:53:13;;;;;;;;;;;;;;;27.96;50.16;97880.91;1681677;83;25254;-85